Terminal Aerodrome Forecast
Issued by NWS

Home | Current Version | Previous Version | Text Only | Print | Product List | Glossary On
Versions: 1 2 3 4 5 6 7 8 9 10 11 12 13
000
FTUS44 KJAN 240520
TAFGTR
TAF
KGTR 240520Z 2406/2506 15013G24KT P6SM FEW025 SCT250
     FM240800 15012G23KT P6SM BKN025 BKN250
     FM241800 16013G23KT P6SM BKN050 BKN250
     FM250100 16014G24KT P6SM BKN025 BKN250=

USA.gov is the U.S. government's official web portal to all federal, state and local government web resources and services.